Home > Products > Valid Products > TAF

000
FTUS43 KGRR 311700 RRA
TAFGRR
TAF
KGRR 311745Z 3118/0118 36017G29KT 6SM -SN OVC015
     FM312100 36015G26KT P6SM BKN025
     FM010400 36011KT P6SM SCT035
     FM011400 01010KT P6SM SCT040=



000
FTUS43 KGRR 311700 RRA
TAFBTL
TAF
KBTL 311745Z 3118/0118 36017G29KT 5SM -SN BR OVC015
     FM312100 36015G26KT P6SM -SN OVC020
     FM010400 36012KT P6SM SCT035
     FM011400 01010KT P6SM SCT040=



000
FTUS43 KGRR 311700 RRA
TAFAZO
TAF
KAZO 311745Z 3118/0118 36017G29KT 3SM -SN BR OVC015
     FM312100 36015G26KT P6SM -SN OVC020
     FM010400 36012KT P6SM SCT035
     FM011400 01010KT P6SM SCT040=



000
FTUS43 KGRR 311700 RRA
TAFLAN
TAF
KLAN 311745Z 3118/0118 36017G29KT 6SM -RASN OVC015
     FM312100 36015G26KT P6SM -SN OVC020
     FM010300 36012G20KT P6SM BKN025
     FM010900 36012KT P6SM BKN035
     FM011400 01011KT P6SM SCT040=



000
FTUS43 KGRR 311700 RRA
TAFMKG
TAF
KMKG 311745Z 3118/0118 01016G29KT 6SM -SN OVC025
     FM312100 01015G27KT P6SM BKN035
     FM010200 01012G20KT P6SM SCT035
     FM011400 02010KT P6SM SCT040=



000
FTUS43 KGRR 311700 RRA
TAFJXN
TAF
KJXN 311745Z 3118/0118 36017G29KT 6SM -RASN OVC015
     FM312100 36015G26KT P6SM -SN OVC020
     FM010300 36012G20KT P6SM BKN025
     FM010900 36012KT P6SM BKN035
     FM011400 01011KT P6SM SCT040=



000
FTUS43 KGRR 311600 AAA
TAFJXN
TAF AMD
KJXN 311641Z 3117/0112 35011KT 6SM -SHRA BR OVC012
     FM311900 35020G31KT 5SM -SHRASN BR OVC010
     FM312100 35020G32KT P6SM -SHSN BKN025
     FM010100 36014G22KT P6SM FEW035=



000
FTUS43 KGRR 311600 AAA
TAFLAN
TAF AMD
KLAN 311637Z 3117/0112 35010G18KT 6SM -RASN BR OVC015
     FM311800 36020G30KT 3SM -SHSN BR OVC010
     FM312100 36020G32KT P6SM -SHSN OVC018
     FM010100 36014G22KT P6SM FEW035=



000
FTUS43 KGRR 311600 AAA
TAFBTL
TAF AMD
KBTL 311634Z 3117/0112 35012KT P6SM VCSH OVC025
     FM311800 36018G30KT 3SM -SHRASN BR OVC010
     FM312100 36018G32KT P6SM -SHSN OVC018
     FM010100 36014G22KT P6SM FEW035=



000
FTUS43 KGRR 311600 AAA
TAFAZO
TAF AMD
KAZO 311630Z 3117/0112 36010G19KT P6SM -SHRA OVC018
     FM311800 36020G30KT 2SM -SHRASN BR OVC010
     FM312100 36018G28KT 6SM -SN BKN025
     FM010100 36014G22KT P6SM FEW035=



000
FTUS43 KGRR 311600 AAA
TAFGRR
TAF AMD
KGRR 311624Z 3116/0112 36019G29KT 1SM -SN BR OVC012
     FM311700 36020G30KT 2SM -SHRASN BR OVC015
     FM311900 36020G32KT P6SM -SHSN OVC018
     FM010100 36014G22KT P6SM FEW035=



000
FTUS43 KGRR 311600 AAA
TAFMKG
TAF AMD
KMKG 311615Z 3116/0112 36020G35KT 3SM -SN BR OVC010
     FM311800 01020G35KT P6SM VCSH OVC018
     FM010200 01014G22KT P6SM SCT035=



000
FTUS43 KGRR 311100
TAFGRR
TAF
KGRR 311140Z 3112/0112 32010G18KT 6SM -SHRA BR OVC015
     FM311700 36020G30KT 2SM -SHRASN BR OVC010
     FM311900 36018G28KT P6SM -SHSN BKN025
     FM010100 36014G22KT P6SM FEW035=



000
FTUS43 KGRR 311100
TAFBTL
TAF
KBTL 311140Z 3112/0112 32012G18KT 6SM -SHRA BR OVC015
     FM312000 36020G30KT 3SM -SHRASN BR OVC010
     FM312200 36018G28KT P6SM -SHSN BKN025
     FM010100 36014G22KT P6SM FEW035=



000
FTUS43 KGRR 311100
TAFMKG
TAF
KMKG 311140Z 3112/0112 33014G25KT 6SM -SHRA BR OVC015
     FM311600 36020G32KT 2SM -SHRASN BR OVC010
     FM311800 01020G30KT P6SM VCSH BKN035
     FM010200 01014G22KT P6SM SCT035=



000
FTUS43 KGRR 311100
TAFJXN
TAF
KJXN 311140Z 3112/0112 30012G18KT 6SM -SHRA BR OVC015
     FM312000 35020G24KT 5SM -SHRASN BR OVC009
     FM312200 35018G28KT P6SM -SHSN BKN025
     FM010100 36014G22KT P6SM FEW035=



000
FTUS43 KGRR 311100
TAFAZO
TAF
KAZO 311140Z 3112/0112 32012G18KT P6SM -SHRA OVC015
     FM312000 36020G30KT 3SM -SHRASN BR OVC010
     FM312200 36018G28KT P6SM -SHSN BKN025
     FM010100 36014G22KT P6SM FEW035=



000
FTUS43 KGRR 311100
TAFLAN
TAF
KLAN 311140Z 3112/0112 32012G18KT 6SM -SHRA BR OVC015
     FM312000 36020G30KT 3SM -SHRASN BR OVC010
     FM312200 36018G28KT P6SM -SHSN BKN025
     FM010100 36014G22KT P6SM FEW035=



000
FTUS43 KGRR 310800 AAA
TAFAZO
TAF AMD
KAZO 310835Z 3109/0106 24010KT P6SM -SHRA OVC025
     FM311200 30010G18KT 5SM -SHRA BR OVC015
     FM311900 36024G38KT 2SM -SHRASN BR OVC010
     FM312100 36024G38KT P6SM VCSH BKN025
     FM010300 36014G22KT P6SM FEW035=



000
FTUS43 KGRR 310700 AAA
TAFGRR
TAF AMD
KGRR 310747Z 3108/0106 28010KT P6SM -SHRA OVC025
     FM311100 30010G18KT 5SM -SHRA BR OVC015
     FM311700 36024G38KT 2SM -SHRASN BR OVC010
     FM311900 36024G38KT P6SM VCSH BKN025
     FM010100 36014G22KT P6SM FEW035=



000
FTUS43 KGRR 310600 AAA
TAFMKG
TAF AMD
KMKG 310653Z 3107/0106 32011G20KT P6SM -SHRA OVC025
     FM311000 33014G22KT 5SM -SHRA BR OVC015
     FM311600 36024G38KT 2SM -SHRASN BR OVC010
     FM311800 01024G38KT P6SM VCSH BKN035
     FM010200 01014G22KT P6SM SCT035=



000
FTUS43 KGRR 310500
TAFJXN
TAF
KJXN 310540Z 3106/0106 21005KT P6SM OVC040
     FM310800 24008KT P6SM -SHRA OVC040
     FM311000 28010KT P6SM -SHRA OVC025
     FM311200 30010G18KT 5SM -SHRA BR OVC015
     FM312000 36020G34KT 2SM -SHRASN BR OVC010
     FM312200 36020G34KT P6SM VCSH BKN025
     FM010200 35014G22KT P6SM VCSH OVC025=



000
FTUS43 KGRR 310500
TAFLAN
TAF
KLAN 310540Z 3106/0106 23005KT P6SM OVC090
     FM310700 24008KT P6SM -SHRA OVC040
     FM311000 28010KT P6SM -SHRA OVC025
     FM311200 30010G18KT 5SM -SHRA BR OVC015
     FM312000 36022G36KT 2SM -SHRASN BR OVC010
     FM312200 36022G36KT P6SM VCSH BKN025
     FM010400 36014G22KT P6SM SCT035=



000
FTUS43 KGRR 310500
TAFGRR
TAF
KGRR 310540Z 3106/0106 26008KT P6SM -SHRA OVC040
     FM310900 28010KT P6SM -SHRA OVC025
     FM311100 30010G18KT 5SM -SHRA BR OVC015
     FM311700 36024G38KT 2SM -SHRASN BR OVC010
     FM311900 36024G38KT P6SM VCSH BKN025
     FM010100 36014G22KT P6SM FEW035=



000
FTUS43 KGRR 310500
TAFBTL
TAF
KBTL 310540Z 3106/0106 22008KT P6SM -SHRA OVC040
     FM311000 28010KT P6SM -SHRA OVC025
     FM311200 30010G18KT 5SM -SHRA BR OVC015
     FM312000 36022G36KT 2SM -SHRASN BR OVC010
     FM312200 36022G36KT P6SM VCSH BKN025
     FM010400 36014G22KT P6SM FEW035=



000
FTUS43 KGRR 310500
TAFMKG
TAF
KMKG 310540Z 3106/0106 29010G18KT P6SM -SHRA OVC035
     FM310800 32011G20KT P6SM -SHRA OVC025
     FM311000 33014G22KT 5SM -SHRA BR OVC015
     FM311600 36024G38KT 2SM -SHRASN BR OVC010
     FM311800 01024G38KT P6SM VCSH BKN035
     FM010200 01014G22KT P6SM SCT035=



000
FTUS43 KGRR 310500
TAFAZO
TAF
KAZO 310540Z 3106/0106 22008KT P6SM -SHRA OVC040
     FM311000 28010KT P6SM -SHRA OVC025
     FM311200 30010G18KT 5SM -SHRA BR OVC015
     FM311900 36024G38KT 2SM -SHRASN BR OVC010
     FM312100 36024G38KT P6SM VCSH BKN025
     FM010300 36014G22KT P6SM FEW035=



000
FTUS43 KGRR 310400 AAA
TAFMKG
TAF AMD
KMKG 310424Z 3104/3124 27006KT P6SM VCSH BKN040
     FM310600 28008KT P6SM VCSH OVC025
     FM310800 32010G20KT 5SM -SHRA BR OVC015
     FM311300 33015G27KT 2SM -RA BR OVC010
     FM311500 36025G38KT 3SM -RASN BR OVC015
     FM311800 01025G38KT P6SM VCSH OVC025=



000
FTUS43 KGRR 310100 AAB
TAFGRR
TAF AMD
KGRR 310158Z 3102/3124 24010KT P6SM SCT028 SCT045 BKN100
     FM310600 27008KT P6SM VCSH OVC025
     FM310800 28011KT 5SM -SHRA BR OVC015
     FM311200 32010G20KT 2SM -RA BR OVC010
     FM311500 36014G22KT 3SM -RASN BR OVC015
     FM311630 01018G28KT 1SM -SN BR OVC009
     FM311900 01020G32KT P6SM VCSH OVC025=



000
FTUS43 KGRR 310000 AAA
TAFGRR
TAF AMD
KGRR 310007Z 3100/3124 24010KT P6SM BKN029
     FM310600 27008KT P6SM VCSH OVC025
     FM310800 28011KT 5SM -SHRA BR OVC015
     FM311200 32010G20KT 2SM -RA BR OVC010
     FM311500 36014G22KT 3SM -RASN BR OVC015
     FM311630 01018G28KT 1SM -SN BR OVC009
     FM311900 01020G32KT P6SM VCSH OVC025=



000
FTUS43 KGRR 302300
TAFAZO
TAF
KAZO 302340Z 3100/3124 28008KT P6SM BKN040
     FM310900 29011KT 5SM -SHRA BR OVC015
     FM311200 32010G20KT 2SM -RA BR OVC010
     FM311600 36014G22KT 3SM -RASN BR OVC015
     FM311800 01020G32KT 1SM -SN BR OVC009
     FM312000 01020G32KT P6SM VCSH OVC025=



000
FTUS43 KGRR 302300
TAFLAN
TAF
KLAN 302340Z 3100/3124 22008KT P6SM BKN040
     FM310700 26008KT P6SM VCSH OVC025
     FM310900 27011KT 5SM -SHRA BR OVC015
     FM311200 32010G20KT 2SM -RA BR OVC010
     FM311700 36014G22KT 3SM -RASN BR OVC015
     FM311900 01020G32KT 1SM -SN BR OVC009
     FM312100 01020G32KT P6SM VCSH OVC025=



000
FTUS43 KGRR 302300
TAFBTL
TAF
KBTL 302340Z 3100/3124 28008KT P6SM BKN040
     FM310900 29011KT 5SM -SHRA BR OVC015
     FM311200 32010G20KT 2SM -RA BR OVC010
     FM311600 36014G22KT 3SM -RASN BR OVC015
     FM311800 01020G32KT 1SM -SN BR OVC009
     FM312000 01020G32KT P6SM VCSH OVC025=



000
FTUS43 KGRR 302300
TAFGRR
TAF
KGRR 302340Z 3100/3124 23010KT P6SM BKN040
     FM310600 27008KT P6SM VCSH OVC025
     FM310800 28011KT 5SM -SHRA BR OVC015
     FM311200 32010G20KT 2SM -RA BR OVC010
     FM311500 36014G22KT 3SM -RASN BR OVC015
     FM311630 01018G28KT 1SM -SN BR OVC009
     FM311900 01020G32KT P6SM VCSH OVC025=



000
FTUS43 KGRR 302300
TAFMKG
TAF
KMKG 302340Z 3100/3124 25006KT P6SM BKN040
     FM310400 28008KT P6SM VCSH OVC025
     FM310600 32010G20KT 5SM -SHRA BR OVC015
     FM311300 33015G27KT 2SM -RA BR OVC010
     FM311500 36025G38KT 3SM -RASN BR OVC015
     FM311800 01025G38KT P6SM VCSH OVC025=



000
FTUS43 KGRR 302300
TAFJXN
TAF
KJXN 302340Z 3100/3124 22004KT P6SM BKN040
     FM310700 26008KT P6SM VCSH OVC025
     FM310900 27011KT 5SM -SHRA BR OVC015
     FM311200 32010G20KT 2SM -RA BR OVC010
     FM311800 36014G22KT 3SM -RASN BR OVC015
     FM312000 01020G32KT 1SM -SN BR OVC009
     FM312200 01020G32KT P6SM VCSH OVC025=



000
FTUS43 KGRR 301700 RRA
TAFGRR
TAF
KGRR 301750Z 3018/3118 23010KT P6SM BKN040
     FM310600 27008KT P6SM VCSH OVC025
     FM310900 28011KT 5SM -SHRA BR OVC015
     FM311200 32010G20KT 2SM -RA BR OVC010
     FM311500 36018G32KT 3SM -RASN BR OVC015=



000
FTUS43 KGRR 301700 RRA
TAFMKG
TAF
KMKG 301750Z 3018/3118 23011KT P6SM BKN040
     FM310400 28008KT P6SM VCSH OVC025
     FM310700 32010G20KT 5SM -SHRA BR OVC015
     FM311300 33015G27KT 2SM -RA BR OVC010
     FM311500 36022G36KT 3SM -RASN BR OVC015=



000
FTUS43 KGRR 301700 RRA
TAFJXN
TAF
KJXN 301750Z 3018/3118 21008KT P6SM BKN040
     FM310800 26008KT P6SM VCSH OVC025
     FM311000 27011KT 5SM -SHRA BR OVC015
     FM311300 32010G20KT 2SM -RA BR OVC010=



000
FTUS43 KGRR 301700 RRA
TAFBTL
TAF
KBTL 301750Z 3018/3118 23010KT P6SM BKN040
     FM310700 26008KT P6SM VCSH OVC025
     FM310900 27011KT 5SM -SHRA BR OVC015
     FM311200 32010G20KT 2SM -RA BR OVC010
     FM311600 36018G32KT 3SM -RASN BR OVC015=



000
FTUS43 KGRR 301700 RRA
TAFAZO
TAF
KAZO 301750Z 3018/3118 23010KT P6SM BKN040
     FM310700 27008KT P6SM VCSH OVC025
     FM310900 28011KT 5SM -SHRA BR OVC015
     FM311200 32010G20KT 2SM -RA BR OVC010
     FM311600 36018G32KT 3SM -RASN BR OVC015=



000
FTUS43 KGRR 301700 RRA
TAFLAN
TAF
KLAN 301750Z 3018/3118 22008KT P6SM BKN040
     FM310700 26008KT P6SM VCSH OVC025
     FM310900 27011KT 5SM -SHRA BR OVC015
     FM311200 32010G20KT 2SM -RA BR OVC010
     FM311600 36018G32KT 3SM -RASN BR OVC015=



000
FTUS43 KGRR 301700 RRA
TAFAZO
TAF
KAZO 301750Z 3018/3118 23010KT P6SM BKN040
     FM310700 27008KT P6SM VCSH OVC025
     FM310900 28011KT 5SM -SHRA BR OVC015
     FM311200 32010G20KT 2SM -RA BR OVC010
     FM311600 36018G32KT 3SM -RASN BR OVC015=



000
FTUS43 KGRR 301700 RRA
TAFJXN
TAF
KJXN 301750Z 3018/3118 21008KT P6SM BKN040
     FM310800 26008KT P6SM VCSH OVC025
     FM311000 27011KT 5SM -SHRA BR OVC015
     FM311300 32010G20KT 2SM -RA BR OVC010=



000
FTUS43 KGRR 301700 RRA
TAFLAN
TAF
KLAN 301750Z 3018/3118 22008KT P6SM BKN040
     FM310700 26008KT P6SM VCSH OVC025
     FM310900 27011KT 5SM -SHRA BR OVC015
     FM311200 32010G20KT 2SM -RA BR OVC010
     FM311600 36018G32KT 3SM -RASN BR OVC015=



000
FTUS43 KGRR 301700 RRA
TAFMKG
TAF
KMKG 301750Z 3018/3118 23011KT P6SM BKN040
     FM310400 28008KT P6SM VCSH OVC025
     FM310700 32010G20KT 5SM -SHRA BR OVC015
     FM311300 33015G27KT 2SM -RA BR OVC010
     FM311500 36022G36KT 3SM -RASN BR OVC015=



000
FTUS43 KGRR 301700 RRA
TAFGRR
TAF
KGRR 301750Z 3018/3118 23010KT P6SM BKN040
     FM310600 27008KT P6SM VCSH OVC025
     FM310900 28011KT 5SM -SHRA BR OVC015
     FM311200 32010G20KT 2SM -RA BR OVC010
     FM311500 36018G32KT 3SM -RASN BR OVC015=



000
FTUS43 KGRR 301700 RRA
TAFBTL
TAF
KBTL 301750Z 3018/3118 23010KT P6SM BKN040
     FM310700 26008KT P6SM VCSH OVC025
     FM310900 27011KT 5SM -SHRA BR OVC015
     FM311200 32010G20KT 2SM -RA BR OVC010
     FM311600 36018G32KT 3SM -RASN BR OVC015=



000
FTUS43 KGRR 301100
TAFGRR
TAF
KGRR 301130Z 3012/3112 21006KT P6SM OVC035
     FM310400 27006KT P6SM VCSH OVC035
     FM311000 32014G27KT P6SM -SHRA OVC025=



000
FTUS43 KGRR 301100
TAFAZO
TAF
KAZO 301130Z 3012/3112 19005KT P6SM OVC035
     FM310600 30008KT P6SM VCSH OVC035=



000
FTUS43 KGRR 301100
TAFMKG
TAF
KMKG 301130Z 3012/3112 21006KT P6SM OVC035
     FM310300 28007KT P6SM VCSH OVC035
     FM310900 33015G30KT P6SM -SHRA OVC025=



000
FTUS43 KGRR 301100
TAFBTL
TAF
KBTL 301130Z 3012/3112 19005KT P6SM OVC035
     FM310600 30008KT P6SM VCSH OVC035=



000
FTUS43 KGRR 301100
TAFJXN
TAF
KJXN 301130Z 3012/3112 24003KT P6SM BKN040=



000
FTUS43 KGRR 301100
TAFLAN
TAF
KLAN 301130Z 3012/3112 22005KT P6SM OVC035
     FM311000 27006KT P6SM -SHRA OVC025=



000
FTUS43 KGRR 300500 RRA
TAFAZO
TAF
KAZO 300550Z 3006/3106 VRB04KT P6SM BKN040
     FM310400 27005KT P6SM VCSH OVC050=



000
FTUS43 KGRR 300500 RRA
TAFBTL
TAF
KBTL 300550Z 3006/3106 VRB04KT P6SM BKN040
     FM310400 27005KT P6SM VCSH OVC050=



000
FTUS43 KGRR 300500 RRA
TAFJXN
TAF
KJXN 300550Z 3006/3106 VRB04KT P6SM BKN040=



000
FTUS43 KGRR 300500 RRA
TAFMKG
TAF
KMKG 300550Z 3006/3106 VRB04KT P6SM BKN040
     FM310200 27005KT P6SM VCSH OVC050=



000
FTUS43 KGRR 300500 RRA
TAFLAN
TAF
KLAN 300550Z 3006/3106 VRB04KT P6SM BKN040
     FM310400 27005KT P6SM VCSH OVC050=



000
FTUS43 KGRR 300500 RRA
TAFGRR
TAF
KGRR 300550Z 3006/3106 VRB04KT P6SM BKN040
     FM310300 27005KT P6SM VCSH OVC050=



000
FTUS43 KGRR 292300
TAFMKG
TAF
KMKG 292340Z 3000/3024 34007KT P6SM BKN035=



000
FTUS43 KGRR 292300
TAFBTL
TAF
KBTL 292340Z 3000/3024 29007KT P6SM BKN040=



000
FTUS43 KGRR 292300
TAFAZO
TAF
KAZO 292340Z 3000/3024 29007KT P6SM BKN040=



000
FTUS43 KGRR 292300
TAFGRR
TAF
KGRR 292340Z 3000/3024 29010KT P6SM BKN040=



000
FTUS43 KGRR 292300
TAFLAN
TAF
KLAN 292340Z 3000/3024 32005KT P6SM BKN035=



000
FTUS43 KGRR 292300
TAFJXN
TAF
KJXN 292340Z 3000/3024 32005KT P6SM BKN035=



000
FTUS43 KGRR 292000 AAA
TAFLAN
TAF AMD
KLAN 292004Z 2920/3018 28010G18KT P6SM VCSH BKN040
     FM300200 32005KT P6SM BKN035=



000
FTUS43 KGRR 292000 AAB
TAFJXN
TAF AMD
KJXN 292004Z 2920/3018 29011KT P6SM VCSH BKN040
     FM300200 32005KT P6SM BKN035=



000
FTUS43 KGRR 292000 AAA
TAFBTL
TAF AMD
KBTL 292003Z 2920/3018 29011KT P6SM VCSH BKN040
     FM300200 32005KT P6SM BKN035=



000
FTUS43 KGRR 292000 AAA
TAFAZO
TAF AMD
KAZO 292002Z 2920/3018 29010KT P6SM VCSH BKN040
     FM300200 32005KT P6SM BKN025=



000
FTUS43 KGRR 292000 AAA
TAFMKG
TAF AMD
KMKG 292000Z 2920/3018 33012KT P6SM VCSH BKN035
     FM300200 34005KT P6SM BKN025=



000
FTUS43 KGRR 292000 AAA
TAFGRR
TAF AMD
KGRR 292000Z 2920/3018 29011KT P6SM VCSH BKN040
     FM300200 32005KT P6SM BKN025=



000
FTUS43 KGRR 291700 AAA
TAFJXN
TAF AMD
KJXN 291753Z 2918/3018 28010KT P6SM VCSH OVC035
      TEMPO 2918/2922 OVC025
     FM300200 32005KT P6SM BKN035=



000
FTUS43 KGRR 291700 CCA
TAFLAN
TAF COR
KLAN 291752Z 2918/3018 28010G18KT P6SM VCSH OVC035
      TEMPO 2918/2922 OVC025
     FM300200 32005KT P6SM BKN035=



000
FTUS43 KGRR 291700 RRA
TAFBTL
TAF
KBTL 291744Z 2918/3018 29010KT P6SM VCSH OVC035
      TEMPO 2918/2922 OVC025
     FM300200 32005KT P6SM BKN035=



000
FTUS43 KGRR 291700 RRA
TAFJXN
TAF
KJXN 291744Z 2918/3018 28010KT P6SM VCSH OVC035
      TEMPO 2918/2922 OVC025
     FM300200 32005KT P6SM BKN025=



000
FTUS43 KGRR 291700 RRA
TAFGRR
TAF
KGRR 291744Z 2918/3018 30010KT P6SM VCSH OVC035
      TEMPO 2918/2922 OVC025
     FM300200 32005KT P6SM BKN025=



000
FTUS43 KGRR 291700 RRA
TAFAZO
TAF
KAZO 291744Z 2918/3018 29010KT P6SM VCSH OVC035
      TEMPO 2918/2922 OVC025
     FM300200 32005KT P6SM BKN025=



000
FTUS43 KGRR 291700 RRA
TAFMKG
TAF
KMKG 291744Z 2918/3018 32010KT P6SM VCSH OVC035
      TEMPO 2918/2922 OVC025
     FM300200 34005KT P6SM BKN025=



000
FTUS43 KGRR 291700 RRA
TAFLAN
TAF
KLAN 291744Z 2918/3018 28010G18KT P6SM VCSH OVC035
      TEMPO 2918/2922 OVC025
     FM300200 32005KT P6SM BKN025=



000
FTUS43 KGRR 291100
TAFAZO
TAF
KAZO 291131Z 2912/3012 23010KT P6SM OVC040
     FM291500 28012G21KT P6SM VCSH OVC025
     FM292200 30005KT P6SM BKN050=



000
FTUS43 KGRR 291100
TAFBTL
TAF
KBTL 291131Z 2912/3012 22011KT P6SM OVC040
     FM291500 28012G21KT P6SM VCSH OVC025
     FM292200 30005KT P6SM BKN050=



000
FTUS43 KGRR 291100
TAFMKG
TAF
KMKG 291131Z 2912/3012 29012G21KT P6SM VCSH OVC035
     FM291400 29012G21KT P6SM VCSH OVC025
     FM292200 32005KT P6SM BKN050=



000
FTUS43 KGRR 291100
TAFGRR
TAF
KGRR 291131Z 2912/3012 28011G20KT P6SM VCSH OVC035
     FM291500 29012G21KT P6SM VCSH OVC025
     FM292200 30005KT P6SM BKN050=



000
FTUS43 KGRR 291100
TAFLAN
TAF
KLAN 291131Z 2912/3012 22010KT P6SM VCSH OVC050
     FM291500 27012G21KT P6SM VCSH OVC025
     FM292200 30005KT P6SM BKN050=



000
FTUS43 KGRR 291100
TAFJXN
TAF
KJXN 291131Z 2912/3012 22008KT P6SM OVC050
     FM291500 27010G20KT P6SM VCSH OVC025
     FM292200 29005KT P6SM BKN050=



000
FTUS43 KGRR 290500
TAFAZO
TAF
KAZO 290540Z 2906/3006 28008KT P6SM BKN050=



000
FTUS43 KGRR 290500
TAFGRR
TAF
KGRR 290540Z 2906/3006 27010KT P6SM BKN050=



000
FTUS43 KGRR 290500
TAFLAN
TAF
KLAN 290540Z 2906/3006 26010KT P6SM BKN050=



000
FTUS43 KGRR 290500
TAFJXN
TAF
KJXN 290540Z 2906/3006 26010KT P6SM BKN050=



000
FTUS43 KGRR 290500
TAFMKG
TAF
KMKG 290540Z 2906/3006 28014G22KT P6SM BKN035
     FM292200 32008KT P6SM BKN050=



000
FTUS43 KGRR 290500
TAFBTL
TAF
KBTL 290540Z 2906/3006 27008KT P6SM BKN050=



000
FTUS43 KGRR 290300 AAA
TAFAZO
TAF AMD
KAZO 290336Z 2904/2924 29010KT P6SM BKN050=



000
FTUS43 KGRR 290300 AAA
TAFGRR
TAF AMD
KGRR 290332Z 2904/2924 26010KT P6SM BKN035
     FM290500 27012KT P6SM OVC035=



000
FTUS43 KGRR 290200 AAA
TAFJXN
TAF AMD
KJXN 290201Z 2902/2924 27010KT P6SM BKN040=



000
FTUS43 KGRR 290200 AAA
TAFLAN
TAF AMD
KLAN 290200Z 2902/2924 26010KT P6SM BKN040=



000
FTUS43 KGRR 282300
TAFGRR
TAF
KGRR 282340Z 2900/2924 26014G23KT P6SM BKN035
     FM290500 27012KT P6SM OVC035=



000
FTUS43 KGRR 282300
TAFMKG
TAF
KMKG 282340Z 2900/2924 27015G25KT P6SM BKN035
     FM291600 30012KT P6SM OVC035=



000
FTUS43 KGRR 282300
TAFLAN
TAF
KLAN 282340Z 2900/2924 26014G25KT P6SM SCT035
     FM290300 27012KT P6SM OVC035=



000
FTUS43 KGRR 282300
TAFBTL
TAF
KBTL 282340Z 2900/2924 26012G20KT P6SM SCT035
     FM290200 27012KT P6SM OVC035=



000
FTUS43 KGRR 282300
TAFJXN
TAF
KJXN 282340Z 2900/2924 28012G20KT P6SM SKC
     FM290300 24012KT P6SM OVC035=



000
FTUS43 KGRR 282300
TAFAZO
TAF
KAZO 282340Z 2900/2924 26012G20KT P6SM SCT035
     FM290200 27012KT P6SM OVC035=



000
FTUS43 KGRR 282300 AAC
TAFJXN
TAF AMD
KJXN 282302Z 2823/2918 28012G20KT P6SM SKC
     FM290300 24012KT P6SM OVC030=



000
FTUS43 KGRR 282300 AAB
TAFBTL
TAF AMD
KBTL 282300Z 2823/2918 27012G22KT P6SM BKN035
     FM290200 24010KT P6SM OVC030=



000
FTUS43 KGRR 282300 AAB
TAFAZO
TAF AMD
KAZO 282300Z 2823/2918 27012G20KT P6SM BKN035
     FM290200 25010KT P6SM OVC030=



000
FTUS43 KGRR 282200 AAB
TAFMKG
TAF AMD
KMKG 282259Z 2823/2918 28015G25KT P6SM BKN035
     FM290200 24012KT P6SM OVC030=



    US Dept of Commerce
    National Oceanic and Atmospheric Administration
    National Weather Service
    1325 East West Highway
    Silver Spring, MD 20910
    Page Author: NWS Internet Services Team
Disclaimer
Information Quality
Credits
Glossary
Privacy Policy
Freedom of Information Act (FOIA)
About Us
Career Opportunities